Archival Weather

Václav Havel Intl Apt

Prague, Czechia (LKPR)

Report from: Monday, May 29, 2023 5:00 AM CEST
Current time: Tuesday, July 16, 2024 6:23 PM CEST

Current weather – Weather history – Daily summaries
Weather forecast

Temperature7.0°C (44.6°F)
Dew point4.0°C (39.2°F)
Winds 2 kts (1 m/s, 2.3 mph) Vrb
Winds variableWinds variable
Clouds Sky clear
Altimeter30.06 in.Hg (1018 mB)
Relative humidity81 %
Density altitude-1,005 ft. (-306 m)
Remarks Ceiling and visibility OK
No significant changes expected in the next two hours
Flight conditions Visual Meteorological Conditions
Raw dataLKPR 290300Z VRB02KT CAVOK 07/04 Q1018 NOSIG
An error has occurred. This application may no longer respond until reloaded. Reload 🗙